createdAt,value
2018-09-15T00:01:40.430Z,0.20
2018-09-15T00:04:08.618Z,0.50
2018-09-15T00:06:36.817Z,0.30
2018-09-15T00:09:07.909Z,0.30
2018-09-15T00:11:36.132Z,0.20
2018-09-15T00:14:04.353Z,0.20
2018-09-15T00:16:32.694Z,1.50
2018-09-15T00:19:00.879Z,0.67
2018-09-15T00:21:29.084Z,0.40
2018-09-15T00:23:57.308Z,0.30
2018-09-15T00:26:25.494Z,0.20
2018-09-15T00:28:53.699Z,0.20
2018-09-15T00:31:22.354Z,0.57
2018-09-15T00:33:50.550Z,0.73
2018-09-15T00:36:18.748Z,0.33
2018-09-15T00:38:47.015Z,0.80
2018-09-15T00:41:15.153Z,0.40
2018-09-15T00:43:43.330Z,0.57
2018-09-15T00:46:11.549Z,0.77
2018-09-15T00:48:39.750Z,0.33
2018-09-15T00:51:07.945Z,0.20
2018-09-15T00:53:36.518Z,0.30
2018-09-15T00:56:04.729Z,0.30
2018-09-15T00:58:32.954Z,0.40
2018-09-15T01:01:01.257Z,0.87
2018-09-15T01:03:29.453Z,1.90
2018-09-15T01:05:57.687Z,0.40
2018-09-15T01:08:26.283Z,0.30
2018-09-15T01:10:54.569Z,0.50
2018-09-15T01:13:22.782Z,1.23
2018-09-15T01:15:51.695Z,0.90
2018-09-15T01:18:19.918Z,0.40
2018-09-15T01:20:48.146Z,0.23
2018-09-15T01:23:16.493Z,0.20
2018-09-15T01:25:44.857Z,0.80
2018-09-15T01:28:13.054Z,0.20
2018-09-15T01:30:41.961Z,0.23
2018-09-15T01:33:10.331Z,0.33
2018-09-15T01:35:38.539Z,0.30
2018-09-15T01:38:07.405Z,1.13
2018-09-15T01:40:35.615Z,0.50
2018-09-15T01:43:03.806Z,0.80
2018-09-15T01:45:32.322Z,0.50
2018-09-15T01:48:00.514Z,1.07
2018-09-15T01:50:28.702Z,0.60
2018-09-15T01:52:57.402Z,0.83
2018-09-15T01:55:25.573Z,0.20
2018-09-15T01:57:53.773Z,0.47
2018-09-15T02:00:22.337Z,0.77
2018-09-15T02:02:50.525Z,0.77
2018-09-15T02:05:18.715Z,0.30
2018-09-15T02:07:47.395Z,0.37
2018-09-15T02:10:15.593Z,0.63
2018-09-15T02:12:43.897Z,2.00
2018-09-15T02:15:12.546Z,0.60
2018-09-15T02:17:40.775Z,0.67
2018-09-15T02:20:08.989Z,0.87
2018-09-15T02:22:37.537Z,0.40
2018-09-15T02:25:05.771Z,0.53
2018-09-15T02:27:33.982Z,0.20
2018-09-15T02:30:02.325Z,0.73
2018-09-15T02:32:30.553Z,0.20
2018-09-15T02:34:58.782Z,0.37
2018-09-15T02:37:27.245Z,0.53
2018-09-15T02:39:55.491Z,0.40
2018-09-15T02:42:23.720Z,1.83
2018-09-15T02:44:52.032Z,0.30
2018-09-15T02:47:20.238Z,0.93
2018-09-15T02:49:48.514Z,1.30
2018-09-15T02:52:16.729Z,0.40
2018-09-15T02:54:44.957Z,0.33
2018-09-15T02:57:13.130Z,0.30
2018-09-15T02:59:41.621Z,0.73
2018-09-15T03:02:09.817Z,1.53
2018-09-15T03:04:38.012Z,0.50
2018-09-15T03:07:06.609Z,0.30
2018-09-15T03:09:34.836Z,0.30
2018-09-15T03:12:03.026Z,0.83
2018-09-15T03:14:31.765Z,0.40
2018-09-15T03:17:00.037Z,0.40
2018-09-15T03:19:28.233Z,0.57
2018-09-15T03:21:57.583Z,1.30
2018-09-15T03:24:25.786Z,0.90
2018-09-15T03:26:53.977Z,1.13
2018-09-15T03:29:22.633Z,0.67
2018-09-15T03:31:50.868Z,0.37
2018-09-15T03:34:19.075Z,0.60
2018-09-15T03:36:47.297Z,0.50
2018-09-15T03:39:15.494Z,0.80
2018-09-15T03:41:43.773Z,0.50
2018-09-15T03:44:12.379Z,1.00
2018-09-15T03:46:40.578Z,0.80
2018-09-15T03:49:08.774Z,0.40
2018-09-15T03:51:37.429Z,0.20
2018-09-15T03:54:05.648Z,0.37
2018-09-15T03:56:33.934Z,0.87
2018-09-15T03:59:03.475Z,0.30
2018-09-15T04:01:31.672Z,0.40
2018-09-15T04:03:59.864Z,0.30
2018-09-15T04:06:28.353Z,0.53
2018-09-15T04:08:56.525Z,0.30
2018-09-15T04:11:24.730Z,0.70
2018-09-15T04:13:52.953Z,0.20
2018-09-15T04:16:21.412Z,0.60
2018-09-15T04:18:49.630Z,0.47
2018-09-15T04:21:17.887Z,0.53
2018-09-15T04:23:46.119Z,1.90
2018-09-15T04:26:14.322Z,1.27
2018-09-15T04:28:43.123Z,0.40
2018-09-15T04:31:11.358Z,1.00
2018-09-15T04:33:39.570Z,0.50
2018-09-15T04:36:07.816Z,2.03
2018-09-15T04:38:36.010Z,1.03
2018-09-15T04:41:04.301Z,0.53
2018-09-15T04:43:32.842Z,0.80
2018-09-15T04:46:01.053Z,1.47
2018-09-15T04:48:29.665Z,0.33
2018-09-15T04:50:57.979Z,0.60
2018-09-15T04:53:26.178Z,0.57
2018-09-15T04:55:54.443Z,1.17
2018-09-15T04:58:23.062Z,0.60
2018-09-15T05:00:51.533Z,0.57
2018-09-15T05:03:19.877Z,0.80
2018-09-15T05:05:48.405Z,0.80
2018-09-15T05:08:16.596Z,0.40
2018-09-15T05:10:44.790Z,0.57
2018-09-15T05:13:13.331Z,0.77
2018-09-15T05:15:41.534Z,0.40
2018-09-15T05:18:09.972Z,1.17
2018-09-15T05:20:38.292Z,0.30
2018-09-15T05:23:06.634Z,0.63
2018-09-15T05:25:34.859Z,0.40
2018-09-15T05:28:03.365Z,0.70
2018-09-15T05:30:31.609Z,0.80
2018-09-15T05:32:59.829Z,0.87
2018-09-15T05:35:28.139Z,0.90
2018-09-15T05:37:56.437Z,0.60
2018-09-15T05:40:24.701Z,0.50
2018-09-15T05:42:52.946Z,0.80
2018-09-15T05:45:21.155Z,0.73
2018-09-15T05:47:49.354Z,1.03
2018-09-15T05:50:17.563Z,0.30
2018-09-15T05:52:45.773Z,0.37
2018-09-15T05:55:13.970Z,0.40
2018-09-15T05:57:42.456Z,0.40
2018-09-15T06:00:10.665Z,0.33
2018-09-15T06:02:38.887Z,1.00
2018-09-15T06:05:07.458Z,1.97
2018-09-15T06:07:35.696Z,1.53
2018-09-15T06:10:03.965Z,1.00
2018-09-15T06:12:32.172Z,0.60
2018-09-15T06:15:00.414Z,1.97
2018-09-15T06:17:28.606Z,0.70
2018-09-15T06:19:57.466Z,0.63
2018-09-15T06:22:25.677Z,0.77
2018-09-15T06:24:53.882Z,0.40
2018-09-15T06:27:22.326Z,1.30
2018-09-15T06:29:50.529Z,0.50
2018-09-15T06:32:18.736Z,1.40
2018-09-15T06:34:47.259Z,0.53
2018-09-15T06:37:15.445Z,0.77
2018-09-15T06:39:43.643Z,1.53
2018-09-15T06:42:12.368Z,2.63
2018-09-15T06:44:40.560Z,2.37
2018-09-15T06:47:08.741Z,0.27
2018-09-15T06:49:36.993Z,0.97
2018-09-15T06:52:05.206Z,0.80
2018-09-15T06:54:33.417Z,2.17
2018-09-15T06:57:01.771Z,0.67
2018-09-15T06:59:29.957Z,0.70
2018-09-15T07:01:58.143Z,0.23
2018-09-15T07:04:26.894Z,0.93
2018-09-15T07:06:55.144Z,0.70
2018-09-15T07:09:23.328Z,0.67
2018-09-15T07:11:51.910Z,0.83
2018-09-15T07:14:20.098Z,1.00
2018-09-15T07:16:48.298Z,0.30
2018-09-15T07:19:16.850Z,0.60
2018-09-15T07:21:45.118Z,0.30
2018-09-15T07:24:13.314Z,0.40
2018-09-15T07:26:41.589Z,0.47
2018-09-15T07:29:09.815Z,0.40
2018-09-15T07:31:38.055Z,0.40
2018-09-15T07:34:06.785Z,0.20
2018-09-15T07:36:34.977Z,0.57
2018-09-15T07:39:04.395Z,0.87
2018-09-15T07:41:33.022Z,0.93
2018-09-15T07:44:01.215Z,0.67
2018-09-15T07:46:29.435Z,0.70
2018-09-15T07:48:57.739Z,0.63
2018-09-15T07:51:25.949Z,0.27
2018-09-15T07:53:54.158Z,1.07
2018-09-15T07:56:22.682Z,0.90
2018-09-15T07:58:50.888Z,0.50
2018-09-15T08:01:19.093Z,0.60
2018-09-15T08:03:47.516Z,0.30
2018-09-15T08:06:15.713Z,0.33
2018-09-15T08:08:43.913Z,0.53
2018-09-15T08:11:12.645Z,0.80
2018-09-15T08:13:40.867Z,0.43
2018-09-15T08:16:09.081Z,0.60
2018-09-15T08:18:37.671Z,0.20
2018-09-15T08:21:05.866Z,0.60
2018-09-15T08:23:34.125Z,0.83
2018-09-15T08:26:03.123Z,0.30
2018-09-15T08:28:31.371Z,0.20
2018-09-15T08:30:59.594Z,1.23
2018-09-15T08:33:27.823Z,0.30
2018-09-15T08:35:56.009Z,0.30
2018-09-15T08:38:24.292Z,0.30
2018-09-15T08:40:52.528Z,0.30
2018-09-15T08:43:20.742Z,0.60
2018-09-15T08:45:50.797Z,0.20
2018-09-15T08:48:19.405Z,0.40
2018-09-15T08:50:47.573Z,0.87
2018-09-15T08:53:15.903Z,0.20
2018-09-15T08:55:44.477Z,0.30
2018-09-15T08:58:12.709Z,0.97
2018-09-15T09:00:40.937Z,0.90
2018-09-15T09:03:09.537Z,0.40
2018-09-15T09:05:37.740Z,0.50
2018-09-15T09:08:05.945Z,0.23
2018-09-15T09:10:34.594Z,0.83
2018-09-15T09:13:02.849Z,1.03
2018-09-15T09:15:31.082Z,0.20
2018-09-15T09:17:59.617Z,0.67
2018-09-15T09:20:27.810Z,0.50
2018-09-15T09:22:55.993Z,0.50
2018-09-15T09:25:24.589Z,0.20
2018-09-15T09:27:52.778Z,0.10
2018-09-15T09:30:20.973Z,0.10
2018-09-15T09:32:49.188Z,0.40
2018-09-15T09:35:17.379Z,0.10
2018-09-15T09:37:45.549Z,0.40
2018-09-15T09:40:13.856Z,0.50
2018-09-15T09:42:42.039Z,0.23
2018-09-15T09:45:10.229Z,0.20
2018-09-15T09:47:39.445Z,0.40
2018-09-15T09:50:07.640Z,0.20
2018-09-15T09:52:36.026Z,0.70
2018-09-15T09:55:04.577Z,0.27
2018-09-15T09:57:32.770Z,0.33
2018-09-15T10:00:00.968Z,0.70
2018-09-15T10:02:29.501Z,0.20
2018-09-15T10:04:57.694Z,0.30
2018-09-15T10:07:25.973Z,0.27
2018-09-15T10:09:54.289Z,0.97
2018-09-15T10:12:22.477Z,0.40
2018-09-15T10:14:50.661Z,0.30
2018-09-15T10:17:19.402Z,0.20
2018-09-15T10:19:47.597Z,0.37
2018-09-15T10:22:15.778Z,0.20
2018-09-15T10:24:44.173Z,0.30
2018-09-15T10:27:12.528Z,0.67
2018-09-15T10:29:40.727Z,0.80
2018-09-15T10:32:09.376Z,0.40
2018-09-15T10:34:37.537Z,0.30
2018-09-15T10:37:05.778Z,0.33
2018-09-15T10:39:33.985Z,0.47
2018-09-15T10:42:02.161Z,0.40
2018-09-15T10:44:30.600Z,0.50
2018-09-15T10:46:58.805Z,0.83
2018-09-15T10:49:27.056Z,0.20
2018-09-15T10:51:55.275Z,0.70
2018-09-15T10:54:23.847Z,0.10
2018-09-15T10:56:52.061Z,0.40
2018-09-15T10:59:20.241Z,0.53
2018-09-15T11:01:48.462Z,0.40
2018-09-15T11:04:16.678Z,0.20
2018-09-15T11:06:44.943Z,0.40
2018-09-15T11:09:13.735Z,0.30
2018-09-15T11:11:41.953Z,0.30
2018-09-15T11:14:10.157Z,0.20
2018-09-15T11:16:38.945Z,0.20
2018-09-15T11:19:07.155Z,0.20
2018-09-15T11:21:35.337Z,0.43
2018-09-15T11:24:03.829Z,0.40
2018-09-15T11:26:32.009Z,0.20
2018-09-15T11:29:00.566Z,0.30
2018-09-15T11:31:29.501Z,0.70
2018-09-15T11:33:57.732Z,0.30
2018-09-15T11:36:25.904Z,0.30
2018-09-15T11:38:54.674Z,0.40
2018-09-15T11:41:22.879Z,0.90
2018-09-15T11:43:51.073Z,0.53
2018-09-15T11:46:20.115Z,0.40
2018-09-15T11:48:48.322Z,0.23
2018-09-15T11:51:16.555Z,0.57
2018-09-15T11:53:45.065Z,0.50
2018-09-15T11:56:13.280Z,0.77
2018-09-15T11:58:41.461Z,0.40
2018-09-15T12:01:10.282Z,1.27
2018-09-15T12:03:38.514Z,0.77
2018-09-15T12:06:06.732Z,0.60
2018-09-15T12:08:35.244Z,0.47
2018-09-15T12:11:03.450Z,0.30
2018-09-15T12:13:31.659Z,0.33
2018-09-15T12:16:00.090Z,0.10
2018-09-15T12:18:28.283Z,0.27
2018-09-15T12:20:56.486Z,0.30
2018-09-15T12:23:25.519Z,0.43
2018-09-15T12:25:53.721Z,0.50
2018-09-15T12:28:21.912Z,0.90
2018-09-15T12:30:50.210Z,0.67
2018-09-15T12:33:18.449Z,0.30
2018-09-15T12:35:46.652Z,0.30
2018-09-15T12:38:15.083Z,1.33
2018-09-15T12:40:43.285Z,0.60
2018-09-15T12:43:11.478Z,0.90
2018-09-15T12:45:40.297Z,1.00
2018-09-15T12:48:08.485Z,1.13
2018-09-15T12:50:36.710Z,0.53
2018-09-15T12:53:05.433Z,0.40
2018-09-15T12:55:33.621Z,0.67
2018-09-15T12:58:01.853Z,0.40
2018-09-15T13:00:30.634Z,0.80
2018-09-15T13:03:00.074Z,0.37
2018-09-15T13:05:28.305Z,0.60
2018-09-15T13:07:56.939Z,0.40
2018-09-15T13:10:25.146Z,0.33
2018-09-15T13:12:53.349Z,0.20
2018-09-15T13:15:21.677Z,0.30
2018-09-15T13:17:49.866Z,0.60
2018-09-15T13:20:18.070Z,0.43
2018-09-15T13:22:46.274Z,0.50
2018-09-15T13:25:14.569Z,0.30
2018-09-15T13:27:42.780Z,0.53
2018-09-15T13:30:11.054Z,0.10
2018-09-15T13:32:39.494Z,0.30
2018-09-15T13:35:07.685Z,0.33
2018-09-15T13:37:36.258Z,0.23
2018-09-15T13:40:04.485Z,0.67
2018-09-15T13:42:32.689Z,0.80
2018-09-15T13:45:01.050Z,0.43
2018-09-15T13:47:29.273Z,0.20
2018-09-15T13:49:57.481Z,0.50
2018-09-15T13:52:25.678Z,0.47
2018-09-15T13:54:53.886Z,0.20
2018-09-15T13:57:22.246Z,0.50
2018-09-15T13:59:50.464Z,0.20
2018-09-15T14:02:18.645Z,0.30
2018-09-15T14:04:46.896Z,0.67
2018-09-15T14:07:15.363Z,0.20
2018-09-15T14:09:43.871Z,0.40
2018-09-15T14:12:11.797Z,0.33
2018-09-15T14:14:40.578Z,0.70
2018-09-15T14:17:08.843Z,0.37
2018-09-15T14:19:37.031Z,0.90
2018-09-15T14:22:05.867Z,0.20
2018-09-15T14:24:34.130Z,0.30
2018-09-15T14:27:02.378Z,0.37
2018-09-15T14:29:30.882Z,0.30
2018-09-15T14:31:59.069Z,0.20
2018-09-15T14:34:27.473Z,0.10
2018-09-15T14:36:55.982Z,0.30
2018-09-15T14:39:24.190Z,0.20
2018-09-15T14:41:52.394Z,0.60
2018-09-15T14:44:20.712Z,0.20
2018-09-15T14:46:48.862Z,0.80
2018-09-15T14:49:17.062Z,0.93
2018-09-15T14:51:45.298Z,0.60
2018-09-15T14:54:13.533Z,0.20
2018-09-15T14:56:41.766Z,0.33
2018-09-15T14:59:10.225Z,0.90
2018-09-15T15:01:38.523Z,0.60
2018-09-15T15:04:06.794Z,0.40
2018-09-15T15:06:38.005Z,0.70
2018-09-15T15:09:10.380Z,0.67
2018-09-15T15:11:38.773Z,1.40
2018-09-15T15:14:07.208Z,0.67
2018-09-15T15:16:35.414Z,0.50
2018-09-15T15:19:04.187Z,0.57
2018-09-15T15:21:32.393Z,0.40
2018-09-15T15:24:00.574Z,0.80
2018-09-15T15:26:31.027Z,0.30
2018-09-15T15:28:59.357Z,0.20
2018-09-15T15:31:29.915Z,0.40
2018-09-15T15:33:58.583Z,0.60
2018-09-15T15:36:27.024Z,0.60
2018-09-15T15:38:55.214Z,0.47
2018-09-15T15:41:23.826Z,0.60
2018-09-15T15:43:52.065Z,0.30
2018-09-15T15:46:20.225Z,0.40
2018-09-15T15:48:48.994Z,0.53
2018-09-15T15:51:17.253Z,0.60
2018-09-15T15:53:45.456Z,0.50
2018-09-15T15:56:13.721Z,0.23
2018-09-15T15:58:42.118Z,0.10
2018-09-15T16:01:10.109Z,0.20
2018-09-15T16:03:38.617Z,0.40
2018-09-15T16:06:06.849Z,0.40
2018-09-15T16:08:35.071Z,0.30
2018-09-15T16:11:03.937Z,0.30
2018-09-15T16:13:32.702Z,0.30
2018-09-15T16:16:01.586Z,0.30
2018-09-15T16:18:30.397Z,1.00
2018-09-15T16:20:58.642Z,0.60
2018-09-15T16:23:26.846Z,0.70
2018-09-15T16:25:55.087Z,0.40
2018-09-15T16:28:23.338Z,0.30
2018-09-15T16:30:51.594Z,0.80
2018-09-15T16:33:20.407Z,0.60
2018-09-15T16:35:48.613Z,0.30
2018-09-15T16:38:17.041Z,0.57
2018-09-15T16:40:45.316Z,0.30
2018-09-15T16:43:13.505Z,0.70
2018-09-15T16:45:41.694Z,0.30
2018-09-15T16:48:10.545Z,0.43
2018-09-15T16:50:38.757Z,0.40
2018-09-15T16:53:06.956Z,0.50
2018-09-15T16:55:36.107Z,1.00
2018-09-15T16:58:04.301Z,0.50
2018-09-15T17:00:32.642Z,0.43
2018-09-15T17:03:01.229Z,1.03
2018-09-15T17:05:36.465Z,0.50
2018-09-15T17:08:05.134Z,0.70
2018-09-15T17:10:33.347Z,0.97
2018-09-15T17:13:01.550Z,0.73
2018-09-15T17:15:31.154Z,0.63
2018-09-15T17:17:59.434Z,0.50
2018-09-15T17:20:27.845Z,0.30
2018-09-15T17:22:56.570Z,0.57
2018-09-15T17:25:24.772Z,0.23
2018-09-15T17:27:52.998Z,0.40
2018-09-15T17:30:21.285Z,0.30
2018-09-15T17:32:49.716Z,0.60
2018-09-15T17:35:17.917Z,0.30
2018-09-15T17:37:46.286Z,0.63
2018-09-15T17:40:14.673Z,0.30
2018-09-15T17:42:42.910Z,0.43
2018-09-15T17:45:11.760Z,0.53
2018-09-15T17:47:40.082Z,0.70
2018-09-15T17:50:08.298Z,0.47
2018-09-15T17:52:36.555Z,1.40
2018-09-15T17:55:05.455Z,1.30
2018-09-15T17:57:33.662Z,0.73
2018-09-15T18:00:02.055Z,0.30
2018-09-15T18:02:30.296Z,0.70
2018-09-15T18:04:58.485Z,1.13
2018-09-15T18:07:28.037Z,0.50
2018-09-15T18:09:56.357Z,0.87
2018-09-15T18:12:24.530Z,0.83
2018-09-15T18:14:53.112Z,0.70
2018-09-15T18:17:21.389Z,0.50
2018-09-15T18:19:49.595Z,1.60
2018-09-15T18:22:18.162Z,6.17
2018-09-15T18:24:46.367Z,3.87
2018-09-15T18:27:14.583Z,1.83
2018-09-15T18:29:43.758Z,2.97
2018-09-15T18:32:12.846Z,3.00
2018-09-15T18:34:41.116Z,1.67
2018-09-15T18:37:09.530Z,25.83
2018-09-15T18:39:38.390Z,8.23
2018-09-15T18:42:06.806Z,18.23
2018-09-15T18:44:35.578Z,27.93
2018-09-15T18:47:03.786Z,13.53
2018-09-15T18:49:32.001Z,6.97
2018-09-15T18:52:00.783Z,4.83
2018-09-15T18:54:29.030Z,6.50
2018-09-15T18:56:57.234Z,2.47
2018-09-15T18:59:26.718Z,2.47
2018-09-15T19:01:54.938Z,2.27
2018-09-15T19:04:23.158Z,0.87
2018-09-15T19:06:51.528Z,0.87
2018-09-15T19:09:19.763Z,1.53
2018-09-15T19:11:47.986Z,1.20
2018-09-15T19:14:16.289Z,0.87
2018-09-15T19:16:44.462Z,0.80
2018-09-15T19:19:13.253Z,1.33
2018-09-15T19:21:41.774Z,2.07
2018-09-15T19:24:09.978Z,0.67
2018-09-15T19:26:38.277Z,1.30
2018-09-15T19:29:06.490Z,0.83
2018-09-15T19:31:34.709Z,0.83
2018-09-15T19:34:02.890Z,0.50
2018-09-15T19:36:31.357Z,1.43
2018-09-15T19:38:59.565Z,1.67
2018-09-15T19:41:27.833Z,0.97
2018-09-15T19:43:57.596Z,0.97
2018-09-15T19:46:25.822Z,0.40
2018-09-15T19:48:54.023Z,0.50
2018-09-15T19:51:22.234Z,0.87
2018-09-15T19:53:50.416Z,1.30
2018-09-15T19:56:18.597Z,1.60
2018-09-15T19:58:47.153Z,0.50
2018-09-15T20:01:15.361Z,0.77
2018-09-15T20:03:43.537Z,0.85
2018-09-15T20:06:12.043Z,1.13
2018-09-15T20:08:40.214Z,0.80
2018-09-15T20:11:08.417Z,1.33
2018-09-15T20:13:36.889Z,0.93
2018-09-15T20:16:04.126Z,0.50
2018-09-15T20:18:31.366Z,0.70
2018-09-15T20:20:58.986Z,2.57
2018-09-15T20:23:27.823Z,0.67
2018-09-15T20:25:56.009Z,0.87
2018-09-15T20:28:24.743Z,0.50
2018-09-15T20:30:52.937Z,0.70
2018-09-15T20:33:21.193Z,1.03
2018-09-15T20:35:49.742Z,0.70
2018-09-15T20:38:17.953Z,1.37
2018-09-15T20:40:46.150Z,1.00
2018-09-15T20:43:14.767Z,1.97
2018-09-15T20:45:43.105Z,1.07
2018-09-15T20:48:11.297Z,0.50
2018-09-15T20:50:39.545Z,0.73
2018-09-15T20:53:07.723Z,0.50
2018-09-15T20:55:35.938Z,0.30
2018-09-15T20:58:04.654Z,0.30
2018-09-15T21:00:32.853Z,0.50
2018-09-15T21:03:01.074Z,1.70
2018-09-15T21:05:29.831Z,0.80
2018-09-15T21:07:58.031Z,0.93
2018-09-15T21:10:28.477Z,1.63
2018-09-15T21:12:56.989Z,1.43
2018-09-15T21:15:25.185Z,0.50
2018-09-15T21:17:53.429Z,0.43
2018-09-15T21:20:22.097Z,0.60
2018-09-15T21:22:50.299Z,0.30
2018-09-15T21:25:18.501Z,0.57
2018-09-15T21:27:47.071Z,1.20
2018-09-15T21:30:15.301Z,1.20
2018-09-15T21:32:43.562Z,0.33
2018-09-15T21:35:12.053Z,0.50
2018-09-15T21:37:40.287Z,1.33
2018-09-15T21:40:08.490Z,0.40
2018-09-15T21:42:37.348Z,0.43
2018-09-15T21:45:05.631Z,0.93
2018-09-15T21:47:34.157Z,0.77
2018-09-15T21:50:02.785Z,1.40
2018-09-15T21:52:30.989Z,0.80
2018-09-15T21:54:59.173Z,0.70
2018-09-15T21:57:27.414Z,2.70
2018-09-15T21:59:55.630Z,0.40
2018-09-15T22:02:23.882Z,0.70
2018-09-15T22:04:53.564Z,0.70
2018-09-15T22:07:21.774Z,0.50
2018-09-15T22:09:49.998Z,0.80
2018-09-15T22:12:18.265Z,1.07
2018-09-15T22:14:46.504Z,1.00
2018-09-15T22:17:14.699Z,0.40
2018-09-15T22:19:43.214Z,1.17
2018-09-15T22:22:11.460Z,0.40
2018-09-15T22:24:39.630Z,0.60
2018-09-15T22:27:08.198Z,0.70
2018-09-15T22:29:36.389Z,0.90
2018-09-15T22:32:04.573Z,0.90
2018-09-15T22:34:33.510Z,1.77
2018-09-15T22:37:01.716Z,0.80
2018-09-15T22:39:29.921Z,1.00
2018-09-15T22:41:58.137Z,0.90
2018-09-15T22:44:26.355Z,1.03
2018-09-15T22:46:54.535Z,1.60
2018-09-15T22:49:22.974Z,1.00
2018-09-15T22:51:51.253Z,1.30
2018-09-15T22:54:19.509Z,0.67
2018-09-15T22:56:47.973Z,0.53
2018-09-15T22:59:16.179Z,1.27
2018-09-15T23:01:44.421Z,0.50
2018-09-15T23:04:14.608Z,0.90
2018-09-15T23:06:42.815Z,0.60
2018-09-15T23:09:11.993Z,0.40
2018-09-15T23:11:40.844Z,0.57
2018-09-15T23:14:09.039Z,0.97
2018-09-15T23:16:37.262Z,0.60
2018-09-15T23:19:05.494Z,1.40
2018-09-15T23:21:33.735Z,1.10
2018-09-15T23:24:01.931Z,1.00
2018-09-15T23:26:30.130Z,0.43
2018-09-15T23:28:58.414Z,0.63
2018-09-15T23:31:26.617Z,0.40
2018-09-15T23:33:54.941Z,1.10
2018-09-15T23:36:23.170Z,2.00
2018-09-15T23:38:51.386Z,0.87
2018-09-15T23:41:20.021Z,0.50
2018-09-15T23:43:48.225Z,0.80
2018-09-15T23:46:16.422Z,0.53
2018-09-15T23:48:45.002Z,1.30
2018-09-15T23:51:13.281Z,0.60
2018-09-15T23:53:41.511Z,1.03
2018-09-15T23:56:10.138Z,0.80
2018-09-15T23:58:38.389Z,1.20
